KDUA/DUA METAR and TAF weather

Enter ICAO airport designator
Station Type Date Time Source
KDUA METAR 2018/07/20 14:35 UTC NOAA

KDUA 201435Z AUTO 24009KT CLR 32/17 A2992 RMK AO2 PWINO


Station Type Date Time Source
KDUA Decoded METAR 2018/07/20 14:35 UTC NOAA

Durant, Eaker Field Airport, OK, United States (KDUA) 33-56-32N 096-23-40W
Jul 20, 2018 - 10:35 AM EDT / 2018.07.20 1435 UTC
Wind: from the WSW (240 degrees) at 10 MPH (9 KT):0
Sky conditions: clear
Temperature: 89 F (32 C)
Dew Point: 62 F (17 C)
Relative Humidity: 40%
Pressure (altimeter): 29.92 in. Hg (1013 hPa)
ob: KDUA 201435Z AUTO 24009KT CLR 32/17 A2992 RMK AO2 PWINO
cycle: 14

Station Type Date Time Source
KDUA TAF UTC NOAA

Error!


Example: see airport list